createdAt,value
2023-05-12T00:01:46.119Z,14.39
2023-05-12T00:04:13.248Z,14.39
2023-05-12T00:06:40.286Z,14.41
2023-05-12T00:09:08.059Z,14.39
2023-05-12T00:11:35.214Z,14.36
2023-05-12T00:14:02.541Z,14.35
2023-05-12T00:16:30.099Z,14.35
2023-05-12T00:18:57.209Z,14.32
2023-05-12T00:21:24.374Z,14.28
2023-05-12T00:23:51.473Z,14.22
2023-05-12T00:26:18.486Z,14.12
2023-05-12T00:28:45.996Z,14.06
2023-05-12T00:31:13.011Z,13.98
2023-05-12T00:33:40.199Z,13.94
2023-05-12T00:36:08.238Z,13.95
2023-05-12T00:38:37.489Z,13.91
2023-05-12T00:41:05.032Z,13.91
2023-05-12T00:43:32.298Z,13.91
2023-05-12T00:46:00.650Z,13.92
2023-05-12T00:48:27.778Z,13.90
2023-05-12T00:50:55.730Z,13.89
2023-05-12T00:53:22.794Z,13.90
2023-05-12T00:55:50.130Z,13.91
2023-05-12T00:58:17.856Z,13.90
2023-05-12T01:00:47.508Z,13.91
2023-05-12T01:03:15.270Z,13.87
2023-05-12T01:05:49.815Z,13.87
2023-05-12T01:08:18.840Z,13.85
2023-05-12T01:10:46.970Z,13.82
2023-05-12T01:13:14.968Z,13.83
2023-05-12T01:15:47.994Z,13.83
2023-05-12T01:18:19.601Z,13.80
2023-05-12T01:20:48.907Z,13.82
2023-05-12T01:23:19.750Z,13.77
2023-05-12T01:25:51.420Z,13.77
2023-05-12T01:28:19.732Z,13.75
2023-05-12T01:30:48.554Z,13.75
2023-05-12T01:33:16.416Z,13.70
2023-05-12T01:35:44.377Z,13.65
2023-05-12T01:38:11.749Z,13.64
2023-05-12T01:40:38.884Z,13.59
2023-05-12T01:43:06.833Z,13.59
2023-05-12T01:45:34.381Z,13.57
2023-05-12T01:48:02.252Z,13.54
2023-05-12T01:50:31.486Z,13.53
2023-05-12T01:52:59.462Z,13.51
2023-05-12T01:55:26.780Z,13.51
2023-05-12T01:57:55.296Z,13.53
2023-05-12T02:00:27.378Z,13.52
2023-05-12T02:02:55.497Z,13.53
2023-05-12T02:05:23.951Z,13.54
2023-05-12T02:07:52.279Z,13.54
2023-05-12T02:10:24.689Z,13.54
2023-05-12T02:12:53.410Z,13.50
2023-05-12T02:15:22.110Z,13.51
2023-05-12T02:17:51.521Z,13.51
2023-05-12T02:20:19.183Z,13.45
2023-05-12T02:22:46.969Z,13.41
2023-05-12T02:25:14.139Z,13.39
2023-05-12T02:27:42.482Z,13.36
2023-05-12T02:30:10.538Z,13.34
2023-05-12T02:32:38.943Z,13.34
2023-05-12T02:35:07.493Z,13.36
2023-05-12T02:37:35.665Z,13.28
2023-05-12T02:40:03.350Z,13.16
2023-05-12T02:42:35.855Z,13.00
2023-05-12T02:45:04.164Z,12.92
2023-05-12T02:47:33.377Z,12.88
2023-05-12T02:50:00.756Z,12.84
2023-05-12T02:52:28.418Z,12.84
2023-05-12T02:54:56.662Z,12.81
2023-05-12T02:57:24.678Z,12.74
2023-05-12T02:59:52.354Z,12.77
2023-05-12T03:02:19.642Z,12.79
2023-05-12T03:04:47.027Z,12.81
2023-05-12T03:07:14.148Z,12.78
2023-05-12T03:09:43.789Z,12.72
2023-05-12T03:12:11.050Z,12.71
2023-05-12T03:14:38.525Z,12.72
2023-05-12T03:17:05.805Z,12.72
2023-05-12T03:19:33.063Z,12.71
2023-05-12T03:22:00.422Z,12.75
2023-05-12T03:24:27.865Z,12.76
2023-05-12T03:26:55.555Z,12.80
2023-05-12T03:29:23.021Z,12.80
2023-05-12T03:31:50.119Z,12.79
2023-05-12T03:34:17.490Z,12.80
2023-05-12T03:36:44.654Z,12.81
2023-05-12T03:39:12.697Z,12.85
2023-05-12T03:41:40.054Z,12.87
2023-05-12T03:44:09.098Z,12.92
2023-05-12T03:46:36.373Z,12.97
2023-05-12T03:49:03.807Z,13.02
2023-05-12T03:51:31.572Z,13.04
2023-05-12T03:53:59.123Z,13.07
2023-05-12T03:56:26.498Z,13.05
2023-05-12T03:58:53.682Z,13.04
2023-05-12T04:01:21.888Z,13.01
2023-05-12T04:03:49.453Z,12.90
2023-05-12T04:06:16.831Z,12.90
2023-05-12T04:08:44.044Z,12.81
2023-05-12T04:11:11.653Z,12.78
2023-05-12T04:13:39.243Z,12.78
2023-05-12T04:16:06.702Z,12.82
2023-05-12T04:18:36.291Z,12.83
2023-05-12T04:21:03.701Z,12.85
2023-05-12T04:23:31.701Z,12.88
2023-05-12T04:25:59.303Z,12.89
2023-05-12T04:28:26.447Z,12.91
2023-05-12T04:30:55.905Z,12.90
2023-05-12T04:33:23.249Z,12.91
2023-05-12T04:35:55.888Z,12.90
2023-05-12T04:38:23.354Z,12.84
2023-05-12T04:40:50.689Z,12.82
2023-05-12T04:45:48.390Z,12.82
2023-05-12T04:48:15.641Z,12.81
2023-05-12T04:50:42.982Z,12.83
2023-05-12T04:53:11.490Z,12.82
2023-05-12T04:55:39.182Z,12.81
2023-05-12T04:58:06.527Z,12.84
2023-05-12T05:00:34.064Z,12.80
2023-05-12T05:03:01.821Z,12.81
2023-05-12T05:05:29.194Z,12.84
2023-05-12T05:07:56.354Z,12.84
2023-05-12T05:10:23.615Z,12.90
2023-05-12T05:12:50.662Z,12.92
2023-05-12T05:15:17.923Z,12.89
2023-05-12T05:17:49.759Z,12.90
2023-05-12T05:20:19.717Z,12.82
2023-05-12T05:22:47.370Z,12.74
2023-05-12T05:25:15.700Z,12.75
2023-05-12T05:27:43.258Z,12.78
2023-05-12T05:30:11.634Z,12.80
2023-05-12T05:32:40.804Z,12.79
2023-05-12T05:35:09.065Z,12.78
2023-05-12T05:37:36.584Z,12.81
2023-05-12T05:40:05.820Z,12.80
2023-05-12T05:42:34.930Z,12.85
2023-05-12T05:45:03.788Z,12.90
2023-05-12T05:47:32.964Z,12.94
2023-05-12T05:50:02.168Z,12.96
2023-05-12T05:52:30.475Z,13.03
2023-05-12T05:54:58.924Z,13.08
2023-05-12T05:57:28.780Z,13.11
2023-05-12T05:59:56.591Z,13.20
2023-05-12T06:02:24.266Z,13.26
2023-05-12T06:04:55.550Z,13.32
2023-05-12T06:07:24.176Z,13.35
2023-05-12T06:09:57.692Z,13.41
2023-05-12T06:12:26.875Z,13.46
2023-05-12T06:14:55.339Z,13.53
2023-05-12T06:17:32.662Z,13.56
2023-05-12T06:20:23.600Z,13.65
2023-05-12T06:22:56.930Z,13.70
2023-05-12T06:25:25.764Z,13.76
2023-05-12T06:27:53.594Z,13.82
2023-05-12T06:30:23.558Z,13.89
2023-05-12T06:32:53.582Z,13.92
2023-05-12T06:35:25.836Z,13.93
2023-05-12T06:37:55.308Z,13.92
2023-05-12T06:40:28.526Z,13.94
2023-05-12T06:42:56.372Z,14.00
2023-05-12T06:45:29.308Z,14.04
2023-05-12T06:47:58.885Z,14.13
2023-05-12T06:50:34.645Z,14.19
2023-05-12T06:53:08.675Z,14.32
2023-05-12T06:55:35.995Z,14.46
2023-05-12T06:58:03.614Z,14.58
2023-05-12T07:00:31.084Z,14.57
2023-05-12T07:02:58.244Z,14.60
2023-05-12T07:05:25.584Z,14.65
2023-05-12T07:07:52.970Z,14.68
2023-05-12T07:10:21.472Z,14.70
2023-05-12T07:12:48.632Z,14.70
2023-05-12T07:15:15.754Z,14.69
2023-05-12T07:17:42.929Z,14.62
2023-05-12T07:20:10.379Z,14.62
2023-05-12T07:22:39.033Z,14.65
2023-05-12T07:25:08.064Z,14.69
2023-05-12T07:27:35.534Z,14.70
2023-05-12T07:30:03.077Z,14.73
2023-05-12T07:32:30.387Z,14.77
2023-05-12T07:34:58.194Z,14.70
2023-05-12T07:37:27.455Z,14.72
2023-05-12T07:39:54.623Z,14.76
2023-05-12T07:42:22.896Z,14.82
2023-05-12T07:44:50.215Z,15.06
2023-05-12T07:47:17.461Z,15.47
2023-05-12T07:49:47.170Z,15.90
2023-05-12T07:52:14.556Z,16.04
2023-05-12T07:54:41.696Z,16.14
2023-05-12T07:57:08.881Z,16.29
2023-05-12T07:59:36.316Z,16.38
2023-05-12T08:02:03.769Z,16.43
2023-05-12T08:04:31.463Z,16.38
2023-05-12T08:06:59.677Z,16.23
2023-05-12T08:09:27.067Z,16.19
2023-05-12T08:11:54.935Z,16.18
2023-05-12T08:14:22.992Z,16.08
2023-05-12T08:16:50.296Z,15.99
2023-05-12T08:19:17.614Z,16.00
2023-05-12T08:21:45.051Z,16.10
2023-05-12T08:24:12.181Z,16.37
2023-05-12T08:26:39.321Z,16.43
2023-05-12T08:29:07.295Z,16.47
2023-05-12T08:31:34.630Z,16.47
2023-05-12T08:34:09.885Z,16.56
2023-05-12T08:36:38.865Z,16.55
2023-05-12T08:39:06.461Z,16.45
2023-05-12T08:41:45.135Z,16.34
2023-05-12T08:44:13.574Z,16.26
2023-05-12T08:46:41.319Z,16.04
2023-05-12T08:49:12.924Z,15.89
2023-05-12T08:51:42.474Z,15.93
2023-05-12T08:54:11.029Z,15.98
2023-05-12T08:59:10.814Z,16.10
2023-05-12T09:01:43.206Z,16.20
2023-05-12T09:04:10.713Z,16.44
2023-05-12T09:06:38.054Z,16.24
2023-05-12T09:09:05.442Z,16.23
2023-05-12T09:11:32.706Z,16.22
2023-05-12T09:14:10.934Z,15.76
2023-05-12T09:16:44.041Z,15.71
2023-05-12T09:19:11.444Z,15.69
2023-05-12T09:21:39.024Z,15.71
2023-05-12T09:24:08.190Z,15.66
2023-05-12T09:26:46.229Z,15.62
2023-05-12T09:29:23.979Z,15.59
2023-05-12T09:31:59.427Z,15.47
2023-05-12T09:34:31.035Z,15.24
2023-05-12T09:37:05.897Z,15.12
2023-05-12T09:39:33.645Z,15.08
2023-05-12T09:42:00.861Z,15.05
2023-05-12T09:44:29.769Z,15.11
2023-05-12T09:47:06.810Z,15.13
2023-05-12T09:49:33.984Z,15.13
2023-05-12T09:52:01.180Z,15.15
2023-05-12T09:54:29.885Z,15.10
2023-05-12T09:57:04.642Z,14.94
2023-05-12T09:59:34.190Z,14.81
2023-05-12T10:02:05.120Z,14.76
2023-05-12T10:04:40.571Z,14.63
2023-05-12T10:07:15.158Z,14.54
2023-05-12T10:09:44.757Z,14.56
2023-05-12T10:12:12.295Z,14.57
2023-05-12T10:14:39.537Z,14.60
2023-05-12T10:17:10.464Z,14.55
2023-05-12T10:19:39.174Z,14.56
2023-05-12T10:22:08.334Z,14.52
2023-05-12T10:24:36.981Z,14.56
2023-05-12T10:27:06.998Z,14.52
2023-05-12T10:29:35.539Z,14.58
2023-05-12T10:32:02.912Z,14.62
2023-05-12T10:34:33.760Z,14.55
2023-05-12T10:37:14.006Z,14.49
2023-05-12T10:39:51.996Z,14.43
2023-05-12T10:42:26.237Z,14.40
2023-05-12T10:44:55.092Z,14.34
2023-05-12T10:47:36.717Z,14.37
2023-05-12T10:50:04.076Z,14.42
2023-05-12T10:52:31.263Z,14.45
2023-05-12T10:55:03.285Z,14.43
2023-05-12T10:57:32.349Z,14.49
2023-05-12T11:00:02.251Z,14.54
2023-05-12T11:02:34.673Z,14.54
2023-05-12T11:05:17.301Z,14.49
2023-05-12T11:07:50.884Z,14.45
2023-05-12T11:10:20.193Z,14.48
2023-05-12T11:12:50.131Z,14.50
2023-05-12T11:15:18.260Z,14.55
2023-05-12T11:17:46.906Z,14.51
2023-05-12T11:20:27.618Z,14.45
2023-05-12T11:22:57.163Z,14.44
2023-05-12T11:25:29.884Z,14.39
2023-05-12T11:27:57.207Z,14.38
2023-05-12T11:30:24.462Z,14.33
2023-05-12T11:33:02.092Z,14.29
2023-05-12T11:35:32.657Z,14.27
2023-05-12T11:37:59.915Z,14.28
2023-05-12T11:40:27.677Z,14.24
2023-05-12T11:42:56.619Z,14.31
2023-05-12T11:45:28.042Z,14.28
2023-05-12T11:48:08.176Z,14.28
2023-05-12T11:50:39.581Z,14.26
2023-05-12T11:53:11.676Z,14.28
2023-05-12T11:55:47.813Z,14.27
2023-05-12T11:58:22.394Z,14.26
2023-05-12T12:00:50.172Z,14.31
2023-05-12T12:03:17.849Z,14.36
2023-05-12T12:05:57.525Z,14.39
2023-05-12T12:08:25.064Z,14.45
2023-05-12T12:10:52.260Z,14.52
2023-05-12T12:13:22.758Z,14.43
2023-05-12T12:15:53.078Z,14.38
2023-05-12T12:18:20.583Z,14.34
2023-05-12T12:20:48.245Z,14.35
2023-05-12T12:23:15.715Z,14.38
2023-05-12T12:25:44.019Z,14.44
2023-05-12T12:28:11.526Z,14.42
2023-05-12T12:30:41.881Z,14.37
2023-05-12T12:33:09.274Z,14.32
2023-05-12T12:35:36.454Z,14.29
2023-05-12T12:38:03.678Z,14.31
2023-05-12T12:40:31.562Z,14.14
2023-05-12T12:43:01.807Z,14.21
2023-05-12T12:45:31.322Z,14.25
2023-05-12T12:47:58.481Z,14.25
2023-05-12T12:50:27.328Z,14.24
2023-05-12T12:52:54.702Z,14.27
2023-05-12T12:55:22.402Z,14.31
2023-05-12T12:57:51.462Z,14.34
2023-05-12T13:00:19.991Z,14.36
2023-05-12T13:02:47.898Z,14.30
2023-05-12T13:05:16.817Z,14.32
2023-05-12T13:07:44.177Z,14.35
2023-05-12T13:10:12.643Z,14.29
2023-05-12T13:12:39.962Z,14.21
2023-05-12T13:15:08.001Z,14.15
2023-05-12T13:17:35.317Z,14.13
2023-05-12T13:20:03.143Z,14.08
2023-05-12T13:22:30.672Z,14.04
2023-05-12T13:24:58.091Z,14.01
2023-05-12T13:27:25.512Z,13.97
2023-05-12T13:29:53.193Z,13.99
2023-05-12T13:32:21.439Z,13.91
2023-05-12T13:34:48.955Z,13.90
2023-05-12T13:37:17.132Z,13.90
2023-05-12T13:39:44.577Z,13.91
2023-05-12T13:42:11.795Z,13.94
2023-05-12T13:44:39.049Z,13.93
2023-05-12T13:47:09.370Z,13.94
2023-05-12T13:49:37.435Z,13.91
2023-05-12T13:52:05.388Z,13.94
2023-05-12T13:54:32.890Z,13.90
2023-05-12T13:57:04.661Z,13.87
2023-05-12T13:59:32.469Z,13.77
2023-05-12T14:02:00.239Z,13.79
2023-05-12T14:04:27.959Z,13.76
2023-05-12T14:06:55.959Z,13.76
2023-05-12T14:09:23.702Z,13.76
2023-05-12T14:11:51.069Z,13.74
2023-05-12T14:14:18.708Z,13.73
2023-05-12T14:16:46.537Z,13.70
2023-05-12T14:19:14.038Z,13.72
2023-05-12T14:21:41.908Z,13.74
2023-05-12T14:24:10.568Z,13.78
2023-05-12T14:26:38.212Z,13.82
2023-05-12T14:29:06.964Z,13.81
2023-05-12T14:31:36.512Z,13.81
2023-05-12T14:34:04.911Z,13.82
2023-05-12T14:36:32.756Z,13.78
2023-05-12T14:39:00.112Z,13.82
2023-05-12T14:41:27.734Z,13.82
2023-05-12T14:43:55.516Z,13.85
2023-05-12T14:46:26.516Z,13.85
2023-05-12T14:48:53.850Z,13.87
2023-05-12T14:51:21.264Z,13.86
2023-05-12T14:53:49.179Z,13.86
2023-05-12T14:56:16.721Z,13.82
2023-05-12T14:58:45.828Z,13.82
2023-05-12T15:01:13.430Z,13.81
2023-05-12T15:03:40.867Z,13.81
2023-05-12T15:06:08.742Z,13.84
2023-05-12T15:08:36.499Z,13.90
2023-05-12T15:11:03.910Z,13.91
2023-05-12T15:13:32.478Z,13.95
2023-05-12T15:15:59.794Z,13.95
2023-05-12T15:18:27.279Z,13.94
2023-05-12T15:20:54.752Z,13.95
2023-05-12T15:23:22.685Z,13.97
2023-05-12T15:25:50.139Z,13.97
2023-05-12T15:28:17.810Z,13.96
2023-05-12T15:30:46.131Z,13.99
2023-05-12T15:33:13.485Z,13.95
2023-05-12T15:35:41.108Z,13.95
2023-05-12T15:38:08.683Z,13.92
2023-05-12T15:40:35.819Z,13.88
2023-05-12T15:43:03.554Z,13.88
2023-05-12T15:45:31.828Z,13.87
2023-05-12T15:47:59.366Z,13.88
2023-05-12T15:50:26.741Z,13.93
2023-05-12T15:52:54.094Z,13.92
2023-05-12T15:55:21.604Z,13.94
2023-05-12T15:57:54.041Z,13.94
2023-05-12T16:00:23.123Z,13.97
2023-05-12T16:02:50.566Z,13.97
2023-05-12T16:05:18.305Z,13.99
2023-05-12T16:07:46.987Z,13.99
2023-05-12T16:10:14.465Z,14.02
2023-05-12T16:12:41.846Z,14.03
2023-05-12T16:15:10.188Z,14.02
2023-05-12T16:17:37.513Z,13.97
2023-05-12T16:20:05.591Z,13.93
2023-05-12T16:22:33.083Z,13.94
2023-05-12T16:25:00.517Z,13.93
2023-05-12T16:27:28.189Z,13.93
2023-05-12T16:29:56.074Z,13.88
2023-05-12T16:32:23.863Z,13.73
2023-05-12T16:34:51.438Z,13.78
2023-05-12T16:37:18.625Z,13.77
2023-05-12T16:39:45.976Z,13.77
2023-05-12T16:42:13.775Z,13.75
2023-05-12T16:44:41.109Z,13.76
2023-05-12T16:47:11.598Z,13.66
2023-05-12T16:49:39.049Z,13.62
2023-05-12T16:52:07.114Z,13.59
2023-05-12T16:54:34.465Z,13.62
2023-05-12T16:57:03.370Z,13.63
2023-05-12T16:59:32.808Z,13.67
2023-05-12T17:02:00.532Z,13.70
2023-05-12T17:04:27.983Z,13.65
2023-05-12T17:06:55.313Z,13.65
2023-05-12T17:09:23.661Z,13.70
2023-05-12T17:11:51.025Z,13.67
2023-05-12T17:14:21.585Z,13.66
2023-05-12T17:16:49.717Z,13.57
2023-05-12T17:19:17.195Z,13.58
2023-05-12T17:21:44.642Z,13.56
2023-05-12T17:24:12.026Z,13.46
2023-05-12T17:26:39.423Z,13.40
2023-05-12T17:29:07.017Z,13.39
2023-05-12T17:31:34.659Z,13.38
2023-05-12T17:34:02.168Z,13.41
2023-05-12T17:36:29.467Z,13.44
2023-05-12T17:38:57.103Z,13.43
2023-05-12T17:41:25.456Z,13.41
2023-05-12T17:43:54.570Z,13.46
2023-05-12T17:46:24.650Z,13.46
2023-05-12T17:48:52.314Z,13.45
2023-05-12T17:51:19.810Z,13.47
2023-05-12T17:53:47.283Z,13.47
2023-05-12T17:56:14.867Z,13.40
2023-05-12T17:58:42.625Z,13.42
2023-05-12T18:01:10.274Z,13.40
2023-05-12T18:03:38.589Z,13.35
2023-05-12T18:06:06.155Z,13.32
2023-05-12T18:08:33.632Z,13.32
2023-05-12T18:11:00.945Z,13.27
2023-05-12T18:13:28.390Z,13.27
2023-05-12T18:15:55.834Z,13.26
2023-05-12T18:18:23.159Z,13.27
2023-05-12T18:20:50.546Z,13.25
2023-05-12T18:23:17.754Z,13.30
2023-05-12T18:25:45.112Z,13.33
2023-05-12T18:28:12.862Z,13.36
2023-05-12T18:30:40.440Z,13.40
2023-05-12T18:33:08.149Z,13.46
2023-05-12T18:35:35.611Z,13.44
2023-05-12T18:38:02.994Z,13.42
2023-05-12T18:40:33.352Z,13.26
2023-05-12T18:43:00.879Z,13.30
2023-05-12T18:45:28.146Z,13.30
2023-05-12T18:47:55.554Z,13.35
2023-05-12T18:50:22.893Z,13.32
2023-05-12T18:52:50.155Z,13.33
2023-05-12T18:55:17.755Z,13.33
2023-05-12T18:57:45.476Z,13.31
2023-05-12T19:00:13.802Z,13.30
2023-05-12T19:02:42.733Z,13.28
2023-05-12T19:05:10.242Z,13.23
2023-05-12T19:07:37.698Z,13.26
2023-05-12T19:10:05.610Z,13.27
2023-05-12T19:12:33.026Z,13.23
2023-05-12T19:15:00.270Z,13.24
2023-05-12T19:17:30.013Z,13.25
2023-05-12T19:19:57.423Z,13.24
2023-05-12T19:22:26.413Z,13.21
2023-05-12T19:24:53.900Z,13.25
2023-05-12T19:27:21.107Z,13.27
2023-05-12T19:29:48.566Z,13.22
2023-05-12T19:32:16.844Z,13.23
2023-05-12T19:34:45.223Z,13.19
2023-05-12T19:37:12.664Z,13.18
2023-05-12T19:39:39.822Z,13.17
2023-05-12T19:42:07.215Z,13.18
2023-05-12T19:44:34.561Z,13.20
2023-05-12T19:47:06.102Z,13.16
2023-05-12T19:49:34.919Z,13.10
2023-05-12T19:52:03.109Z,13.09
2023-05-12T19:54:31.186Z,13.11
2023-05-12T19:57:00.190Z,13.08
2023-05-12T19:59:27.375Z,13.12
2023-05-12T20:01:54.706Z,13.12
2023-05-12T20:04:21.958Z,13.13
2023-05-12T20:06:49.432Z,13.13
2023-05-12T20:09:16.686Z,13.13
2023-05-12T20:11:43.813Z,13.15
2023-05-12T20:14:11.113Z,13.11
2023-05-12T20:16:38.632Z,13.06
2023-05-12T20:19:05.958Z,13.04
2023-05-12T20:21:33.152Z,13.00
2023-05-12T20:24:02.865Z,12.96
2023-05-12T20:26:31.032Z,12.95
2023-05-12T20:28:59.856Z,12.95
2023-05-12T20:31:27.949Z,12.93
2023-05-12T20:33:57.680Z,12.93
2023-05-12T20:36:24.976Z,12.91
2023-05-12T20:38:52.215Z,12.89
2023-05-12T20:41:19.851Z,12.84
2023-05-12T20:43:47.002Z,12.80
2023-05-12T20:46:14.310Z,12.80
2023-05-12T20:48:41.586Z,12.82
2023-05-12T20:51:12.846Z,12.79
2023-05-12T20:53:40.235Z,12.79
2023-05-12T20:56:08.627Z,12.76
2023-05-12T20:58:36.638Z,12.75
2023-05-12T21:01:04.660Z,12.69
2023-05-12T21:03:33.692Z,12.71
2023-05-12T21:06:01.327Z,12.71
2023-05-12T21:08:28.625Z,12.72
2023-05-12T21:10:56.141Z,12.71
2023-05-12T21:13:23.353Z,12.73
2023-05-12T21:15:50.618Z,12.76
2023-05-12T21:18:17.701Z,12.72
2023-05-12T21:20:44.995Z,12.69
2023-05-12T21:23:13.631Z,12.70
2023-05-12T21:25:40.784Z,12.68
2023-05-12T21:28:07.979Z,12.66
2023-05-12T21:30:37.357Z,12.65
2023-05-12T21:33:05.953Z,12.64
2023-05-12T21:35:33.331Z,12.63
2023-05-12T21:38:02.945Z,12.68
2023-05-12T21:40:30.396Z,12.70
2023-05-12T21:42:57.801Z,12.73
2023-05-12T21:45:27.388Z,12.77
2023-05-12T21:47:54.664Z,12.78
2023-05-12T21:50:22.344Z,12.78
2023-05-12T21:52:50.528Z,12.77
2023-05-12T21:55:17.929Z,12.75
2023-05-12T21:57:45.745Z,12.70
2023-05-12T22:00:15.346Z,12.72
2023-05-12T22:02:42.626Z,12.67
2023-05-12T22:05:10.134Z,12.69
2023-05-12T22:07:37.356Z,12.71
2023-05-12T22:10:05.174Z,12.77
2023-05-12T22:12:32.329Z,12.74
2023-05-12T22:14:59.969Z,12.70
2023-05-12T22:17:27.293Z,12.70
2023-05-12T22:19:54.518Z,12.67
2023-05-12T22:22:21.581Z,12.68
2023-05-12T22:24:48.696Z,12.66
2023-05-12T22:27:21.774Z,12.69
2023-05-12T22:29:49.023Z,12.71
2023-05-12T22:32:16.451Z,12.73
2023-05-12T22:34:43.752Z,12.71
2023-05-12T22:37:11.113Z,12.70
2023-05-12T22:39:38.297Z,12.72
2023-05-12T22:42:06.528Z,12.70
2023-05-12T22:44:33.749Z,12.68
2023-05-12T22:47:03.289Z,12.68
2023-05-12T22:49:30.397Z,12.67
2023-05-12T22:51:57.662Z,12.63
2023-05-12T22:54:24.866Z,12.60
2023-05-12T22:56:52.122Z,12.61
2023-05-12T22:59:19.259Z,12.57
2023-05-12T23:01:46.618Z,12.59
2023-05-12T23:04:13.849Z,12.58
2023-05-12T23:06:41.317Z,12.59
2023-05-12T23:09:09.607Z,12.55
2023-05-12T23:11:36.690Z,12.57
2023-05-12T23:14:03.857Z,12.57
2023-05-12T23:16:31.052Z,12.58
2023-05-12T23:18:58.525Z,12.57
2023-05-12T23:21:25.974Z,12.60
2023-05-12T23:23:55.915Z,12.64
2023-05-12T23:26:23.227Z,12.61
2023-05-12T23:28:51.036Z,12.60
2023-05-12T23:31:18.424Z,12.61
2023-05-12T23:33:45.920Z,12.59
2023-05-12T23:36:14.028Z,12.57
2023-05-12T23:38:41.661Z,12.58
2023-05-12T23:41:09.079Z,12.49
2023-05-12T23:43:36.526Z,12.45
2023-05-12T23:46:04.141Z,12.43
2023-05-12T23:48:31.458Z,12.44
2023-05-12T23:50:58.660Z,12.46
2023-05-12T23:53:26.295Z,12.43
2023-05-12T23:55:53.685Z,12.44
2023-05-12T23:58:20.952Z,12.43
